Time;durP1;ratioP1;P1;durP2;ratioP2;P2;SDS_P1;SDS_P2;PMS_P1;PMS_P2;Temp;Humidity;BMP_temperature;BMP_pressure;BME280_temperature;BME280_humidity;BME280_pressure;Samples;Min_cycle;Max_cycle;Signal;HPM_P1;HPM_P2
2024/04/04 00:00:44;;;;;;;1.57;1.47;;;11.40;54.70;;;;;;5011714;28;20592;-68
2024/04/04 00:03:11;;;;;;;1.50;1.40;;;11.40;54.60;;;;;;5004978;28;20230;-68
2024/04/04 00:05:37;;;;;;;1.50;1.30;;;11.50;54.60;;;;;;5012114;28;20208;-66
2024/04/04 00:08:04;;;;;;;1.50;1.40;;;11.50;54.10;;;;;;5016232;28;20300;-67
2024/04/04 00:10:29;;;;;;;1.50;1.40;;;11.50;54.20;;;;;;5005892;28;20224;-67
2024/04/04 00:12:58;;;;;;;1.30;1.30;;;11.40;54.10;;;;;;4997430;28;20742;-67
2024/04/04 00:15:24;;;;;;;1.23;1.20;;;11.40;54.20;;;;;;5007122;28;20216;-68
2024/04/04 00:17:50;;;;;;;1.53;1.30;;;11.40;54.60;;;;;;5014813;28;20212;-68
2024/04/04 00:20:16;;;;;;;1.53;1.20;;;11.40;54.30;;;;;;5013996;28;20704;-67
2024/04/04 00:22:42;;;;;;;1.30;1.30;;;11.30;54.70;;;;;;5013031;28;20213;-68
2024/04/04 00:25:08;;;;;;;1.40;1.30;;;11.40;54.70;;;;;;5007045;28;20218;-67
2024/04/04 00:27:34;;;;;;;1.40;1.30;;;11.40;54.40;;;;;;5011466;28;20244;-67
2024/04/04 00:30:00;;;;;;;1.73;1.63;;;11.50;53.70;;;;;;5003803;28;20675;-67
2024/04/04 00:32:27;;;;;;;1.50;1.40;;;11.50;53.90;;;;;;5012524;28;20267;-68
2024/04/04 00:34:53;;;;;;;1.30;1.20;;;11.50;53.90;;;;;;5014313;28;20664;-67
2024/04/04 00:37:19;;;;;;;1.30;1.30;;;11.50;54.00;;;;;;5007084;28;20224;-67
2024/04/04 00:39:45;;;;;;;1.67;1.57;;;11.50;54.20;;;;;;5011098;28;20201;-68
2024/04/04 00:42:11;;;;;;;1.33;1.23;;;11.50;53.60;;;;;;5007852;28;20244;-68
2024/04/04 00:44:37;;;;;;;1.90;1.30;;;11.50;53.80;;;;;;5014954;28;20217;-68
2024/04/04 00:47:03;;;;;;;1.37;1.27;;;11.60;53.50;;;;;;5010609;28;20202;-67
2024/04/04 00:49:29;;;;;;;1.30;1.30;;;11.60;53.60;;;;;;5007514;28;20267;-67
2024/04/04 00:51:56;;;;;;;1.70;1.60;;;11.60;53.40;;;;;;5008738;28;20640;-68
2024/04/04 00:54:21;;;;;;;1.63;1.30;;;11.60;53.10;;;;;;5007045;28;20220;-68
2024/04/04 00:56:48;;;;;;;1.33;1.23;;;11.60;53.10;;;;;;5006291;28;20301;-68
2024/04/04 00:59:13;;;;;;;1.50;1.40;;;11.60;52.90;;;;;;5014332;28;20262;-68
2024/04/04 01:01:40;;;;;;;1.40;1.30;;;11.70;52.70;;;;;;5016261;28;20218;-68
2024/04/04 01:04:06;;;;;;;1.63;1.43;;;11.60;52.90;;;;;;5009534;28;20206;-67
2024/04/04 01:06:32;;;;;;;1.10;1.10;;;11.70;52.80;;;;;;5007781;28;20213;-68
2024/04/04 01:08:58;;;;;;;1.30;1.20;;;11.70;52.50;;;;;;5013883;28;20212;-68
2024/04/04 01:11:25;;;;;;;1.60;1.50;;;11.60;52.80;;;;;;5006996;28;20639;-67
2024/04/04 01:13:50;;;;;;;1.20;1.20;;;11.60;53.10;;;;;;5014434;28;20271;-67
2024/04/04 01:16:17;;;;;;;1.43;1.33;;;11.60;53.10;;;;;;5014046;28;20214;-68
2024/04/04 01:18:42;;;;;;;1.50;1.40;;;11.60;53.40;;;;;;5013613;28;20208;-67
2024/04/04 01:21:09;;;;;;;1.23;1.20;;;11.50;53.20;;;;;;5005870;28;20208;-67
2024/04/04 01:23:34;;;;;;;1.37;1.27;;;11.60;53.00;;;;;;5009173;28;20214;-68
2024/04/04 01:26:01;;;;;;;1.10;1.10;;;11.60;52.90;;;;;;5020468;28;20215;-67
2024/04/04 01:28:26;;;;;;;1.40;1.30;;;11.50;52.90;;;;;;5013061;28;20213;-67
2024/04/04 01:30:53;;;;;;;1.50;1.40;;;11.60;52.60;;;;;;5005559;28;20248;-67
2024/04/04 01:33:19;;;;;;;1.90;1.60;;;11.60;52.60;;;;;;5013304;28;20233;-67
2024/04/04 01:35:45;;;;;;;1.93;1.30;;;11.60;52.60;;;;;;5013395;28;20262;-67
2024/04/04 01:38:11;;;;;;;1.20;1.20;;;11.60;52.30;;;;;;5013697;28;20205;-67
2024/04/04 01:40:37;;;;;;;1.47;1.30;;;11.70;52.20;;;;;;5009446;28;20211;-66
2024/04/04 01:43:03;;;;;;;1.30;1.20;;;11.60;52.30;;;;;;5006776;28;20707;-67
2024/04/04 01:45:30;;;;;;;1.37;1.20;;;11.70;52.10;;;;;;5012769;28;20222;-67
2024/04/04 01:47:56;;;;;;;1.40;1.30;;;11.70;52.10;;;;;;5013190;28;20668;-67
2024/04/04 01:50:22;;;;;;;1.47;1.40;;;11.70;52.10;;;;;;5012483;28;20695;-67
2024/04/04 01:52:48;;;;;;;1.20;1.20;;;11.70;52.00;;;;;;5006192;28;20283;-67
2024/04/04 01:55:14;;;;;;;1.40;1.30;;;11.60;52.60;;;;;;5013278;28;20229;-67
2024/04/04 01:57:40;;;;;;;1.40;1.40;;;11.70;52.30;;;;;;5001850;28;20584;-67
2024/04/04 02:00:07;;;;;;;1.83;1.60;;;11.70;52.10;;;;;;5009685;28;20216;-67
2024/04/04 02:02:33;;;;;;;1.50;1.30;;;11.70;52.10;;;;;;5012800;28;20238;-67
2024/04/04 02:04:59;;;;;;;1.60;1.50;;;11.60;52.10;;;;;;5013160;28;20209;-67
2024/04/04 02:07:25;;;;;;;1.73;1.40;;;11.60;52.70;;;;;;5004181;28;20213;-67
2024/04/04 02:09:51;;;;;;;1.20;1.20;;;11.60;52.70;;;;;;4998022;28;20647;-67
2024/04/04 02:12:17;;;;;;;1.67;1.40;;;11.60;52.60;;;;;;5004799;28;20242;-67
2024/04/04 02:14:44;;;;;;;1.53;1.30;;;11.70;52.50;;;;;;5016440;28;20207;-66
2024/04/04 02:17:11;;;;;;;1.83;1.40;;;11.60;52.80;;;;;;5013197;28;20610;-67
2024/04/04 02:19:37;;;;;;;1.17;1.17;;;11.70;52.70;;;;;;5004247;28;20241;-67
2024/04/04 02:22:03;;;;;;;1.50;1.40;;;11.70;52.70;;;;;;5012899;28;20290;-67
2024/04/04 02:24:30;;;;;;;1.50;1.40;;;11.70;52.50;;;;;;5008883;28;20297;-67
2024/04/04 02:26:55;;;;;;;1.10;1.10;;;11.70;52.50;;;;;;5006966;28;20206;-67
2024/04/04 02:29:22;;;;;;;1.43;1.33;;;11.70;52.60;;;;;;5011869;28;20668;-66
2024/04/04 02:31:47;;;;;;;1.47;1.37;;;11.70;53.10;;;;;;5012443;28;20245;-67
2024/04/04 02:34:14;;;;;;;1.30;1.20;;;11.70;52.90;;;;;;5011740;28;20706;-67
2024/04/04 02:36:40;;;;;;;1.40;1.30;;;11.70;53.10;;;;;;5007466;28;20232;-67
2024/04/04 02:39:06;;;;;;;1.53;1.30;;;11.70;52.80;;;;;;5012572;28;20607;-67
2024/04/04 02:41:33;;;;;;;2.50;1.40;;;11.80;52.90;;;;;;5018565;28;20225;-67
2024/04/04 02:43:59;;;;;;;1.40;1.30;;;11.80;52.90;;;;;;4999460;28;20296;-67
2024/04/04 02:46:25;;;;;;;1.50;1.40;;;11.80;52.60;;;;;;4995647;28;20677;-67
2024/04/04 02:48:51;;;;;;;2.00;1.30;;;11.80;52.90;;;;;;5012712;28;20206;-67
2024/04/04 02:51:17;;;;;;;2.17;1.30;;;11.80;52.80;;;;;;5012448;28;20320;-67
2024/04/04 02:53:44;;;;;;;1.50;1.40;;;11.90;52.70;;;;;;5011721;28;20300;-67
2024/04/04 02:56:10;;;;;;;1.50;1.40;;;11.80;53.00;;;;;;5005145;28;20206;-67
2024/04/04 02:58:36;;;;;;;1.43;1.33;;;11.80;53.20;;;;;;5003804;28;20886;-67
2024/04/04 03:01:02;;;;;;;1.43;1.33;;;11.80;53.10;;;;;;5008414;28;21982;-66
2024/04/04 03:03:29;;;;;;;1.63;1.53;;;11.80;53.10;;;;;;5003665;28;20226;-67
2024/04/04 03:05:54;;;;;;;1.73;1.63;;;11.90;53.30;;;;;;5006663;28;20260;-67
2024/04/04 03:08:21;;;;;;;1.27;1.17;;;11.90;53.10;;;;;;5003931;28;20205;-67
2024/04/04 03:10:47;;;;;;;1.90;1.60;;;11.90;53.30;;;;;;5008724;28;20296;-67
2024/04/04 03:13:14;;;;;;;2.10;1.37;;;11.90;53.00;;;;;;5007951;28;20311;-67
2024/04/04 03:15:40;;;;;;;1.23;1.20;;;11.90;53.20;;;;;;5011702;28;20247;-67
2024/04/04 03:18:06;;;;;;;1.40;1.30;;;12.00;53.20;;;;;;5012428;28;20225;-67
2024/04/04 03:20:32;;;;;;;1.30;1.20;;;12.00;53.20;;;;;;5003948;28;20212;-67
2024/04/04 03:22:59;;;;;;;1.80;1.70;;;12.00;53.30;;;;;;5004587;28;20230;-67
2024/04/04 03:25:25;;;;;;;2.57;1.50;;;12.00;53.50;;;;;;5014060;28;20670;-67
2024/04/04 03:27:51;;;;;;;1.83;1.60;;;11.90;53.80;;;;;;5003640;28;20259;-67
2024/04/04 03:30:17;;;;;;;2.00;1.40;;;12.00;53.80;;;;;;5011237;28;20754;-66
2024/04/04 03:32:44;;;;;;;1.53;1.40;;;11.90;53.70;;;;;;5005228;28;20229;-67
2024/04/04 03:35:09;;;;;;;1.73;1.50;;;12.00;53.80;;;;;;5007795;28;20213;-67
2024/04/04 03:37:36;;;;;;;1.90;1.73;;;11.90;53.60;;;;;;5006761;28;20707;-67
2024/04/04 03:40:02;;;;;;;2.07;1.60;;;11.90;53.70;;;;;;5006368;28;20210;-66
2024/04/04 03:42:29;;;;;;;2.33;1.50;;;11.90;53.40;;;;;;5010801;28;20325;-66
2024/04/04 03:44:56;;;;;;;1.40;1.30;;;11.90;53.50;;;;;;5010924;28;20220;-67
2024/04/04 03:47:21;;;;;;;1.40;1.30;;;11.80;53.70;;;;;;5015348;28;20217;-67
2024/04/04 03:49:48;;;;;;;1.30;1.20;;;11.80;53.90;;;;;;5014950;28;20220;-66
2024/04/04 03:52:13;;;;;;;1.70;1.60;;;11.80;53.90;;;;;;5014886;28;20675;-68
2024/04/04 03:54:40;;;;;;;1.50;1.40;;;11.70;53.70;;;;;;5008404;28;20294;-67
2024/04/04 03:57:06;;;;;;;1.60;1.50;;;11.80;53.70;;;;;;5003180;28;20581;-68
2024/04/04 03:59:33;;;;;;;1.40;1.30;;;11.70;53.90;;;;;;5016184;28;20209;-67
2024/04/04 04:01:59;;;;;;;1.40;1.30;;;11.70;54.00;;;;;;5009815;28;20240;-67
2024/04/04 04:04:26;;;;;;;1.83;1.70;;;11.70;53.90;;;;;;5018536;28;20216;-67
2024/04/04 04:06:51;;;;;;;1.70;1.60;;;11.70;53.90;;;;;;5018132;28;20583;-67
2024/04/04 04:09:18;;;;;;;1.53;1.40;;;11.70;53.80;;;;;;5017582;28;20688;-66
2024/04/04 04:11:44;;;;;;;1.30;1.30;;;11.70;53.80;;;;;;5017703;28;20261;-67
2024/04/04 04:14:10;;;;;;;1.63;1.53;;;11.80;54.20;;;;;;5008758;28;20585;-68
2024/04/04 04:16:36;;;;;;;1.60;1.20;;;11.80;53.70;;;;;;5013269;28;20247;-67
2024/04/04 04:19:03;;;;;;;1.47;1.37;;;11.80;53.80;;;;;;5010260;28;20216;-67
2024/04/04 04:21:28;;;;;;;1.40;1.40;;;11.80;53.80;;;;;;5017837;28;20241;-70
2024/04/04 04:23:57;;;;;;;1.43;1.33;;;11.80;53.90;;;;;;5016175;28;20211;-65
2024/04/04 04:26:23;;;;;;;1.50;1.40;;;11.80;54.00;;;;;;5014401;28;20221;-68
2024/04/04 04:28:49;;;;;;;1.30;1.30;;;11.80;53.90;;;;;;5014759;28;20271;-66
2024/04/04 04:31:15;;;;;;;2.97;1.60;;;11.80;53.60;;;;;;5007157;28;20225;-67
2024/04/04 04:33:42;;;;;;;1.40;1.20;;;11.90;53.70;;;;;;5009238;28;20201;-67
2024/04/04 04:36:08;;;;;;;1.37;1.27;;;11.90;53.60;;;;;;5013862;28;20565;-66
2024/04/04 04:38:35;;;;;;;1.30;1.30;;;11.80;53.70;;;;;;5014388;28;20209;-68
2024/04/04 04:41:01;;;;;;;1.40;1.30;;;11.80;54.00;;;;;;5014940;28;20583;-65
2024/04/04 04:43:27;;;;;;;1.47;1.37;;;11.80;53.90;;;;;;5014413;28;20236;-66
2024/04/04 04:45:53;;;;;;;1.90;1.70;;;11.80;53.90;;;;;;5014385;28;20225;-65
2024/04/04 04:48:19;;;;;;;1.40;1.40;;;11.80;54.00;;;;;;5007372;28;26080;-66
2024/04/04 04:50:45;;;;;;;1.30;1.20;;;11.70;54.00;;;;;;5009115;28;20214;-65
2024/04/04 04:53:12;;;;;;;1.10;1.10;;;11.80;54.10;;;;;;5002432;28;20233;-66
2024/04/04 04:55:38;;;;;;;1.40;1.30;;;11.80;53.80;;;;;;5014159;28;20688;-65
2024/04/04 04:58:04;;;;;;;3.30;1.67;;;11.80;54.20;;;;;;5013353;28;20297;-66
2024/04/04 05:00:30;;;;;;;1.43;1.20;;;11.80;54.00;;;;;;5014496;28;20584;-65
2024/04/04 05:02:56;;;;;;;1.67;1.57;;;11.70;54.00;;;;;;5010611;28;20222;-66
2024/04/04 05:05:22;;;;;;;1.30;1.20;;;11.70;54.10;;;;;;5007558;28;20205;-67
2024/04/04 05:07:50;;;;;;;1.60;1.50;;;11.70;54.10;;;;;;5014046;28;20217;-66
2024/04/04 05:10:16;;;;;;;1.33;1.23;;;11.70;54.20;;;;;;5006147;28;20217;-66
2024/04/04 05:12:43;;;;;;;1.50;1.40;;;11.70;54.10;;;;;;5013850;28;20249;-66
2024/04/04 05:15:09;;;;;;;1.60;1.50;;;11.80;54.00;;;;;;5014120;28;20672;-66
2024/04/04 05:17:35;;;;;;;1.50;1.40;;;11.80;53.90;;;;;;5013773;28;20224;-66
2024/04/04 05:20:02;;;;;;;1.47;1.40;;;11.80;54.00;;;;;;4995341;28;20256;-64
2024/04/04 05:22:28;;;;;;;1.20;1.20;;;11.90;54.40;;;;;;5007200;28;20224;-66
2024/04/04 05:24:56;;;;;;;1.50;1.40;;;11.90;53.90;;;;;;5011243;28;20217;-67
2024/04/04 05:27:21;;;;;;;1.73;1.23;;;11.90;53.70;;;;;;5005654;28;20210;-67
2024/04/04 05:29:48;;;;;;;1.83;1.63;;;11.90;53.80;;;;;;5004453;28;20216;-66
2024/04/04 05:32:14;;;;;;;1.60;1.50;;;11.90;54.00;;;;;;5010069;28;20233;-66
2024/04/04 05:34:41;;;;;;;2.83;1.40;;;11.80;54.00;;;;;;5013652;28;20253;-66
2024/04/04 05:37:06;;;;;;;1.60;1.50;;;11.90;54.00;;;;;;5013708;28;20291;-67
2024/04/04 05:39:33;;;;;;;1.70;1.40;;;11.90;54.20;;;;;;5013874;28;20205;-67
2024/04/04 05:41:58;;;;;;;1.53;1.20;;;11.90;54.10;;;;;;5013776;28;20229;-67
2024/04/04 05:44:25;;;;;;;1.57;1.47;;;12.00;53.60;;;;;;5006108;28;20220;-67
2024/04/04 05:46:51;;;;;;;1.50;1.50;;;12.00;53.80;;;;;;5002638;28;20211;-67
2024/04/04 05:49:17;;;;;;;1.37;1.37;;;12.00;53.90;;;;;;5002422;28;20206;-67
2024/04/04 05:51:43;;;;;;;1.67;1.60;;;11.90;53.90;;;;;;5013601;28;20261;-67
2024/04/04 05:54:09;;;;;;;2.13;1.93;;;11.90;53.90;;;;;;5013586;28;20607;-67
2024/04/04 05:56:35;;;;;;;1.60;1.50;;;11.80;54.20;;;;;;5013470;28;20885;-67
2024/04/04 05:59:01;;;;;;;1.60;1.50;;;11.80;54.10;;;;;;5013502;28;20207;-67
2024/04/04 06:01:27;;;;;;;1.80;1.47;;;11.80;54.10;;;;;;5012388;28;20240;-66
2024/04/04 06:03:54;;;;;;;1.47;1.40;;;12.00;53.80;;;;;;5004262;28;20203;-67
2024/04/04 06:06:19;;;;;;;1.63;1.53;;;12.20;53.40;;;;;;5009582;28;20213;-67
2024/04/04 06:08:46;;;;;;;2.30;1.33;;;12.20;53.20;;;;;;5012172;28;20265;-67
2024/04/04 06:11:12;;;;;;;1.67;1.30;;;12.10;53.00;;;;;;5012805;28;20217;-67
2024/04/04 06:13:38;;;;;;;1.13;1.10;;;12.10;53.20;;;;;;5013044;28;20218;-67
2024/04/04 06:16:04;;;;;;;1.53;1.43;;;12.10;53.10;;;;;;5013016;28;20269;-67
2024/04/04 06:18:31;;;;;;;1.20;1.20;;;12.30;52.90;;;;;;5005332;28;20202;-67
2024/04/04 06:20:57;;;;;;;1.37;1.27;;;12.50;52.20;;;;;;5010939;28;20415;-66
2024/04/04 06:23:26;;;;;;;2.47;1.40;;;12.70;51.50;;;;;;4993095;28;20818;-67
2024/04/04 06:25:52;;;;;;;1.97;1.40;;;12.80;51.50;;;;;;5006151;28;20210;-67
2024/04/04 06:28:18;;;;;;;1.30;1.20;;;13.10;50.80;;;;;;5012335;28;20210;-66
2024/04/04 06:30:44;;;;;;;1.30;1.20;;;13.20;50.20;;;;;;5012683;28;20208;-67
2024/04/04 06:33:11;;;;;;;1.40;1.30;;;13.40;49.90;;;;;;5012333;28;20227;-66
2024/04/04 06:35:36;;;;;;;1.40;1.30;;;13.60;50.00;;;;;;5007385;28;20206;-66
2024/04/04 06:38:03;;;;;;;1.27;1.20;;;13.70;48.60;;;;;;5001316;28;20211;-66
2024/04/04 06:40:31;;;;;;;2.47;1.37;;;13.80;48.40;;;;;;4994281;28;20209;-66
2024/04/04 06:42:58;;;;;;;2.00;1.20;;;13.70;47.80;;;;;;5011805;28;20707;-67
2024/04/04 06:45:24;;;;;;;1.40;1.30;;;13.80;48.10;;;;;;5011995;28;20594;-65
2024/04/04 06:47:50;;;;;;;1.27;1.20;;;13.90;47.10;;;;;;5012292;28;20238;-67
2024/04/04 06:50:16;;;;;;;1.30;1.20;;;14.10;47.60;;;;;;5011492;28;20219;-66
2024/04/04 06:52:43;;;;;;;1.70;1.60;;;14.20;47.20;;;;;;5002917;28;20230;-66
2024/04/04 06:55:08;;;;;;;2.70;1.40;;;14.10;47.00;;;;;;4990322;28;20217;-65
2024/04/04 06:57:35;;;;;;;2.83;1.27;;;14.20;46.70;;;;;;5007336;28;20206;-66
2024/04/04 07:00:01;;;;;;;1.20;1.20;;;14.30;46.50;;;;;;5009934;28;20244;-66
2024/04/04 07:02:27;;;;;;;1.80;1.40;;;14.40;45.60;;;;;;5008861;28;20227;-67
2024/04/04 07:04:53;;;;;;;1.23;1.10;;;14.30;46.00;;;;;;5002630;28;20211;-67
2024/04/04 07:07:19;;;;;;;1.33;1.10;;;14.50;45.80;;;;;;5007523;28;20231;-66
2024/04/04 07:09:45;;;;;;;1.47;1.37;;;14.70;44.80;;;;;;5009313;28;20214;-66
2024/04/04 07:12:11;;;;;;;1.30;1.20;;;14.60;45.40;;;;;;4999708;28;20665;-67
2024/04/04 07:14:39;;;;;;;2.00;1.30;;;14.40;45.40;;;;;;5006807;28;20215;-66
2024/04/04 07:17:06;;;;;;;1.63;1.30;;;14.30;46.10;;;;;;5009903;28;20208;-67
2024/04/04 07:19:31;;;;;;;1.30;1.20;;;14.20;45.70;;;;;;5011377;28;20220;-65
2024/04/04 07:21:58;;;;;;;1.30;1.20;;;14.20;46.90;;;;;;5010065;28;20221;-65
2024/04/04 07:24:24;;;;;;;1.13;1.13;;;14.00;46.40;;;;;;5008869;28;20228;-64
2024/04/04 07:26:50;;;;;;;1.30;1.20;;;13.80;46.50;;;;;;4998756;28;20292;-63
2024/04/04 07:29:16;;;;;;;1.10;1.10;;;13.60;46.30;;;;;;5000113;28;20212;-64
2024/04/04 07:31:44;;;;;;;4.10;1.20;;;13.50;46.70;;;;;;5003453;28;20652;-65
2024/04/04 07:34:09;;;;;;;1.27;1.17;;;13.50;46.70;;;;;;5001945;28;20226;-64
2024/04/04 07:36:36;;;;;;;1.30;1.20;;;13.70;46.90;;;;;;5004613;28;20221;-65
2024/04/04 07:39:02;;;;;;;1.53;1.43;;;14.20;46.00;;;;;;4990098;28;20587;-65
2024/04/04 07:41:28;;;;;;;1.50;1.20;;;14.70;44.80;;;;;;5010272;28;20218;-65
2024/04/04 07:43:54;;;;;;;1.40;1.30;;;15.10;43.80;;;;;;5011142;28;20210;-67
2024/04/04 07:46:20;;;;;;;1.50;1.40;;;15.10;42.50;;;;;;5009377;28;20557;-66
2024/04/04 07:48:46;;;;;;;1.30;1.20;;;15.30;42.90;;;;;;4993774;28;20208;-66
2024/04/04 07:51:13;;;;;;;2.10;1.23;;;15.60;41.70;;;;;;5003538;28;20208;-65
2024/04/04 07:53:39;;;;;;;1.40;1.20;;;15.70;41.10;;;;;;5002301;28;20229;-64
2024/04/04 07:56:05;;;;;;;1.30;1.30;;;15.70;40.90;;;;;;4996264;28;20209;-65
2024/04/04 07:58:31;;;;;;;1.30;1.10;;;15.90;40.90;;;;;;5008786;28;20201;-65
2024/04/04 08:00:58;;;;;;;1.47;1.23;;;16.20;40.70;;;;;;5006028;28;20241;-66
2024/04/04 08:03:23;;;;;;;1.30;1.20;;;16.10;40.70;;;;;;5004818;28;20237;-65
2024/04/04 08:05:50;;;;;;;2.30;1.30;;;16.40;40.60;;;;;;5008815;28;20731;-66
2024/04/04 08:08:15;;;;;;;2.40;1.33;;;16.50;40.00;;;;;;5016645;28;20262;-65
2024/04/04 08:10:42;;;;;;;2.17;1.10;;;16.40;39.00;;;;;;5005029;28;20624;-66
2024/04/04 08:13:08;;;;;;;1.60;1.20;;;16.60;39.10;;;;;;5001908;28;20232;-65
2024/04/04 08:15:34;;;;;;;1.00;1.00;;;16.50;38.10;;;;;;5008166;28;20591;-67
2024/04/04 08:18:00;;;;;;;1.17;1.07;;;16.80;37.50;;;;;;4997574;28;20219;-66
2024/04/04 08:20:27;;;;;;;2.50;1.10;;;17.20;36.90;;;;;;5008665;28;20606;-66
2024/04/04 08:22:53;;;;;;;1.13;1.10;;;17.50;37.60;;;;;;5010809;28;20235;-66
2024/04/04 08:25:21;;;;;;;2.73;1.00;;;17.60;36.20;;;;;;5010719;28;20654;-65
2024/04/04 08:27:46;;;;;;;1.57;1.17;;;17.90;36.20;;;;;;5011366;28;20219;-66
2024/04/04 08:30:13;;;;;;;1.30;1.20;;;18.20;34.80;;;;;;5010523;28;20218;-67
2024/04/04 08:32:39;;;;;;;2.10;1.23;;;18.60;35.00;;;;;;5010204;28;20247;-67
2024/04/04 08:35:06;;;;;;;1.57;1.10;;;18.80;34.50;;;;;;5002725;28;20209;-67
2024/04/04 08:37:32;;;;;;;1.33;1.10;;;18.90;34.10;;;;;;5010559;28;20204;-67
2024/04/04 08:39:59;;;;;;;1.37;1.00;;;19.10;32.80;;;;;;5014549;28;20264;-67
2024/04/04 08:42:24;;;;;;;2.20;0.97;;;19.60;32.50;;;;;;5014025;28;20231;-67
2024/04/04 08:44:51;;;;;;;0.95;0.93;;;19.80;31.40;;;;;;5014649;28;20217;-67
2024/04/04 08:47:16;;;;;;;1.13;1.00;;;19.20;32.20;;;;;;5014111;28;20693;-67
2024/04/04 08:49:43;;;;;;;1.25;1.08;;;19.20;31.80;;;;;;5014056;28;20207;-67
2024/04/04 08:52:08;;;;;;;1.02;1.00;;;18.80;32.30;;;;;;5004859;28;20235;-67
2024/04/04 08:54:36;;;;;;;1.33;0.98;;;18.50;33.20;;;;;;5013579;28;20616;-67
2024/04/04 08:57:02;;;;;;;1.83;1.30;;;18.60;32.70;;;;;;5008497;28;20257;-67
2024/04/04 08:59:29;;;;;;;2.25;0.98;;;19.20;32.80;;;;;;5005469;28;20206;-67
2024/04/04 09:01:54;;;;;;;1.48;0.98;;;19.10;30.60;;;;;;5013675;28;20717;-64
2024/04/04 09:04:21;;;;;;;2.35;1.02;;;19.00;31.70;;;;;;5011816;28;20209;-66
2024/04/04 09:06:46;;;;;;;1.17;1.00;;;19.20;30.50;;;;;;5010353;28;20670;-65
2024/04/04 09:09:13;;;;;;;1.63;1.17;;;19.40;31.00;;;;;;5009931;28;20290;-66
2024/04/04 09:11:39;;;;;;;1.83;1.03;;;19.40;31.30;;;;;;5013720;28;20267;-65
2024/04/04 09:14:09;;;;;;;1.60;1.08;;;19.30;30.70;;;;;;5014188;28;20763;-65
2024/04/04 09:16:35;;;;;;;1.00;0.90;;;19.10;30.70;;;;;;4996227;28;20207;-67
2024/04/04 09:19:01;;;;;;;1.90;1.20;;;18.70;31.60;;;;;;4993958;28;20205;-66
2024/04/04 09:21:27;;;;;;;1.17;1.08;;;18.70;31.10;;;;;;4996572;28;20736;-67
2024/04/04 09:23:54;;;;;;;2.40;1.02;;;19.30;30.20;;;;;;5003353;28;20199;-67
2024/04/04 09:26:20;;;;;;;2.45;1.05;;;19.40;30.40;;;;;;5006421;28;20235;-65
2024/04/04 09:28:47;;;;;;;2.67;1.40;;;19.90;29.80;;;;;;5006447;28;20607;-65
2024/04/04 09:31:14;;;;;;;1.67;1.00;;;19.40;29.90;;;;;;5007489;28;20239;-67
2024/04/04 09:33:40;;;;;;;2.03;1.17;;;19.80;29.20;;;;;;5011338;28;20223;-67
2024/04/04 09:36:06;;;;;;;1.98;1.45;;;19.40;29.30;;;;;;5007077;28;20572;-67
2024/04/04 09:38:32;;;;;;;2.30;1.10;;;19.60;29.50;;;;;;5007377;28;20207;-66
2024/04/04 09:40:58;;;;;;;1.52;1.13;;;19.70;28.90;;;;;;5007402;28;20239;-67
2024/04/04 09:43:26;;;;;;;2.20;1.20;;;18.90;29.30;;;;;;5006321;28;20222;-66
2024/04/04 09:45:51;;;;;;;1.55;1.27;;;18.70;30.10;;;;;;4972828;28;20635;-67
2024/04/04 09:48:19;;;;;;;1.80;1.37;;;18.60;30.50;;;;;;4987226;28;20207;-67
2024/04/04 09:50:44;;;;;;;1.17;1.03;;;18.30;31.30;;;;;;4979621;28;20225;-68
2024/04/04 09:53:11;;;;;;;1.10;1.00;;;18.30;30.60;;;;;;4990284;28;20230;-66
2024/04/04 09:55:37;;;;;;;1.10;1.10;;;18.40;31.00;;;;;;4990382;28;20265;-67
2024/04/04 09:58:03;;;;;;;2.60;1.10;;;18.70;30.00;;;;;;4984154;28;20235;-66
2024/04/04 10:00:30;;;;;;;1.80;1.30;;;19.00;30.20;;;;;;4975724;28;20226;-67
2024/04/04 10:02:57;;;;;;;1.30;1.20;;;19.10;29.90;;;;;;4980613;28;20230;-66
2024/04/04 10:05:23;;;;;;;1.70;1.50;;;19.00;30.30;;;;;;4981579;28;20273;-66
2024/04/04 10:07:50;;;;;;;3.40;1.10;;;19.00;29.30;;;;;;4989028;28;20255;-67
2024/04/04 10:10:16;;;;;;;4.65;1.67;;;19.80;29.20;;;;;;4979862;28;20240;-66
2024/04/04 10:12:43;;;;;;;3.50;1.30;;;20.90;28.30;;;;;;4985416;28;20263;-66
2024/04/04 10:15:08;;;;;;;1.25;0.90;;;21.50;27.20;;;;;;4987045;28;20745;-67
2024/04/04 10:17:35;;;;;;;1.40;1.30;;;22.10;26.30;;;;;;4982804;28;20208;-67
2024/04/04 10:20:00;;;;;;;1.38;0.90;;;23.30;24.80;;;;;;4975253;28;20224;-67
2024/04/04 10:22:27;;;;;;;1.42;1.10;;;23.40;25.10;;;;;;4986608;28;20220;-66
2024/04/04 10:24:53;;;;;;;0.95;0.80;;;24.90;24.10;;;;;;4982095;28;20208;-67
2024/04/04 10:27:19;;;;;;;2.33;1.08;;;23.60;24.50;;;;;;4986402;28;20214;-67
2024/04/04 10:29:45;;;;;;;0.90;0.70;;;22.50;25.00;;;;;;4990793;28;20204;-64
2024/04/04 10:32:11;;;;;;;1.35;0.90;;;21.50;25.50;;;;;;4983357;28;20601;-66
2024/04/04 10:34:37;;;;;;;1.15;0.98;;;20.30;26.20;;;;;;4978092;28;20290;-67
2024/04/04 10:37:04;;;;;;;1.10;1.00;;;20.80;26.50;;;;;;4974937;28;20227;-67
2024/04/04 10:39:30;;;;;;;1.45;1.10;;;21.60;26.20;;;;;;4976565;28;20212;-66
2024/04/04 10:41:57;;;;;;;1.10;0.82;;;21.40;26.80;;;;;;4957968;28;20770;-67
2024/04/04 10:44:22;;;;;;;1.63;0.90;;;20.80;26.20;;;;;;4988015;28;20215;-67
2024/04/04 10:46:49;;;;;;;0.85;0.82;;;20.00;27.30;;;;;;4989222;28;20206;-68
2024/04/04 10:49:14;;;;;;;1.10;0.90;;;20.00;27.10;;;;;;4989371;28;20215;-68
2024/04/04 10:51:41;;;;;;;1.42;0.98;;;20.30;27.20;;;;;;4991097;28;20235;-68
2024/04/04 10:54:07;;;;;;;1.08;1.00;;;20.10;27.00;;;;;;4981900;28;20235;-70
2024/04/04 10:56:34;;;;;;;1.30;1.00;;;20.00;27.20;;;;;;4989592;28;20235;-66
2024/04/04 10:59:00;;;;;;;0.90;0.90;;;19.70;27.60;;;;;;4990840;28;20299;-67
2024/04/04 11:01:27;;;;;;;2.38;1.13;;;19.40;28.00;;;;;;5000680;28;20286;-66
2024/04/04 11:03:53;;;;;;;1.08;0.95;;;19.20;28.50;;;;;;4988613;28;20214;-66
2024/04/04 11:06:20;;;;;;;1.40;1.10;;;19.10;28.30;;;;;;4991217;28;20212;-67
2024/04/04 11:08:46;;;;;;;1.00;0.90;;;19.20;28.40;;;;;;4988797;28;20675;-67
2024/04/04 11:11:15;;;;;;;2.07;1.00;;;19.30;28.70;;;;;;4979189;28;20214;-67
2024/04/04 11:13:41;;;;;;;1.40;1.20;;;19.10;29.00;;;;;;4991326;28;20242;-65
2024/04/04 11:16:07;;;;;;;1.87;1.00;;;19.10;28.80;;;;;;4990185;28;20214;-66
2024/04/04 11:18:34;;;;;;;2.03;1.10;;;19.20;28.90;;;;;;4990459;28;20203;-68
2024/04/04 11:21:00;;;;;;;1.33;1.00;;;19.20;29.50;;;;;;4988700;28;20470;-67
2024/04/04 11:23:26;;;;;;;1.77;1.07;;;18.80;29.00;;;;;;4990169;28;20228;-67
2024/04/04 11:25:52;;;;;;;1.27;1.17;;;18.70;29.00;;;;;;4984697;28;20212;-68
2024/04/04 11:28:19;;;;;;;2.67;0.90;;;18.70;28.90;;;;;;4984319;28;20211;-66
2024/04/04 11:30:44;;;;;;;3.27;1.50;;;18.60;29.00;;;;;;4987717;28;20290;-67
2024/04/04 11:33:11;;;;;;;1.20;1.10;;;18.60;29.30;;;;;;4987641;28;20297;-67
2024/04/04 11:35:37;;;;;;;1.93;1.17;;;18.50;29.00;;;;;;4988421;28;20760;-66
2024/04/04 11:38:04;;;;;;;1.27;0.80;;;18.50;29.70;;;;;;4982766;28;20659;-67
2024/04/04 11:40:29;;;;;;;1.17;1.07;;;18.40;29.10;;;;;;4989134;28;20207;-67
2024/04/04 11:42:56;;;;;;;1.00;0.83;;;18.20;29.30;;;;;;4991667;28;20232;-67
2024/04/04 11:45:22;;;;;;;3.27;1.10;;;18.20;29.10;;;;;;4990569;28;20216;-67
2024/04/04 11:47:48;;;;;;;4.80;1.07;;;18.00;29.40;;;;;;4991035;28;20210;-69
2024/04/04 11:50:14;;;;;;;1.90;1.00;;;17.90;29.80;;;;;;4987902;28;20199;-66
2024/04/04 11:52:40;;;;;;;2.07;1.10;;;17.70;29.60;;;;;;4982513;28;20229;-65
2024/04/04 11:55:07;;;;;;;1.90;1.30;;;17.80;30.00;;;;;;4986035;28;20208;-66
2024/04/04 11:57:33;;;;;;;1.20;1.10;;;17.90;30.00;;;;;;4982757;28;20296;-66
2024/04/04 11:59:59;;;;;;;1.00;1.00;;;18.00;30.10;;;;;;4991510;28;20218;-66
2024/04/04 12:02:26;;;;;;;1.60;1.10;;;18.00;29.80;;;;;;4990497;28;20224;-66
2024/04/04 12:04:51;;;;;;;2.67;1.10;;;17.70;29.90;;;;;;4990800;28;20212;-66
2024/04/04 12:07:18;;;;;;;1.40;1.30;;;17.80;30.30;;;;;;4974660;28;20713;-66
2024/04/04 12:09:43;;;;;;;1.40;1.30;;;17.90;30.00;;;;;;4994838;28;20204;-66
2024/04/04 12:12:12;;;;;;;1.70;1.30;;;17.90;30.40;;;;;;4985043;28;20223;-67
2024/04/04 12:14:37;;;;;;;2.50;1.10;;;17.90;30.60;;;;;;4991494;28;20264;-66
2024/04/04 12:17:04;;;;;;;1.87;1.50;;;17.90;30.40;;;;;;4987360;28;20208;-66
2024/04/04 12:19:30;;;;;;;1.50;1.40;;;17.90;30.70;;;;;;4981894;28;20208;-66
2024/04/04 12:21:57;;;;;;;1.37;1.23;;;18.00;30.70;;;;;;4989236;28;20234;-67
2024/04/04 12:24:23;;;;;;;2.73;1.40;;;17.90;30.50;;;;;;4994922;28;20206;-66
2024/04/04 12:26:50;;;;;;;2.57;1.50;;;17.90;30.60;;;;;;4988286;28;20216;-65
2024/04/04 12:29:19;;;;;;;3.27;1.77;;;17.90;30.60;;;;;;4984863;28;20247;-67
2024/04/04 12:31:45;;;;;;;1.40;1.00;;;18.10;30.50;;;;;;4997728;28;20862;-65
2024/04/04 12:34:11;;;;;;;1.63;1.30;;;18.10;30.50;;;;;;4992801;28;20226;-66
2024/04/04 12:36:37;;;;;;;1.20;1.00;;;18.00;30.50;;;;;;4994804;28;20208;-66
2024/04/04 12:39:08;;;;;;;2.17;1.60;;;17.70;30.80;;;;;;4987511;28;20790;-66
2024/04/04 12:41:33;;;;;;;1.53;1.30;;;17.60;31.50;;;;;;4976385;28;20227;-64